Axel, Netherlands
Current Conditions -  °F | °C
As of 11:55 AM on Wednesday 26 Nov 2014 (Local Time) from EHFS Reporting Station
Overcast Overcast  
Wind Chill: 38°   Ceiling: 1500
Heat Index: 45°   Visibility: 4mi
Dew Point: 43°   Wind: 14mph
Humidity: 93%   Direction: 90°E
Pressure: 29.91"   Gusts: NA
Location:  51.27°N, 3.91°E
Report Text: EHFS 261055Z AUTO 09012KT 7000 OVC015/// 07/06 Q1013
Loading
Personal Weather Stations






























Interactive Weather Map New forecast layout! Learn more

10-Day Weather Forecast

Advertisements
Track Severe Weather on mobile